createdAt,value
2023-05-23T14:09:00.553Z,4976.00
2023-05-23T14:10:00.481Z,5400.00
2023-05-23T14:11:00.442Z,5744.00
2023-05-23T14:12:00.393Z,5612.00
2023-05-23T14:39:52.962Z,6392.00
2023-05-23T14:40:52.876Z,3152.00
2023-05-23T14:41:52.844Z,3260.00
2023-05-23T14:42:52.802Z,3304.00
2023-05-23T14:43:52.803Z,4272.00
2023-05-23T14:44:52.734Z,7076.00
2023-05-23T15:38:37.852Z,2524.00
2023-05-23T15:39:37.789Z,2408.00
2023-05-23T15:40:37.747Z,2312.00
2023-05-23T15:41:37.718Z,2216.00
2023-05-23T15:42:37.667Z,2216.00
2023-05-23T15:43:37.627Z,2272.00
2023-05-23T15:44:37.766Z,2468.00
2023-05-23T15:45:37.547Z,2628.00
2023-05-23T15:46:37.541Z,2864.00
2023-05-23T15:47:37.486Z,3300.00
2023-05-23T15:48:37.442Z,3080.00
2023-05-23T15:49:37.386Z,2948.00
2023-05-23T15:50:37.349Z,3248.00
2023-05-23T15:51:37.304Z,3756.00
2023-05-23T15:53:47.886Z,5160.00
2023-05-23T15:54:37.202Z,6892.00
2023-05-23T15:55:38.653Z,6708.00
2023-05-23T15:56:37.101Z,8152.00
2023-05-23T15:57:37.064Z,8232.00
2023-05-23T15:58:37.019Z,8068.00
2023-05-23T16:36:33.206Z,63968.00
2023-05-23T16:37:33.131Z,62016.00
2023-05-23T16:38:33.096Z,62784.00
2023-05-23T16:39:33.058Z,62400.00
2023-05-23T16:40:33.026Z,65504.00
2023-05-23T16:41:32.994Z,65280.00
2023-05-23T16:42:32.958Z,65280.00
2023-05-23T16:43:32.930Z,66624.00
2023-05-23T16:44:32.944Z,66304.00
2023-05-23T16:45:33.081Z,64320.00
2023-05-23T16:46:32.875Z,60768.00
2023-05-23T16:47:32.811Z,61568.00
2023-05-23T16:48:32.754Z,59456.00
2023-05-23T16:49:32.726Z,59168.00
2023-05-23T16:50:32.693Z,59360.00
2023-05-23T16:51:32.654Z,59328.00
2023-05-23T16:52:32.659Z,60192.00
2023-05-23T16:53:38.163Z,59680.00
2023-05-23T16:54:38.125Z,61760.00
2023-05-23T16:55:38.105Z,63744.00
2023-05-23T16:56:38.054Z,63104.00
2023-05-23T16:57:38.024Z,61664.00
2023-05-23T16:58:37.985Z,61600.00
2023-05-23T16:59:37.960Z,63296.00
2023-05-23T17:00:37.922Z,63648.00
2023-05-23T17:01:37.996Z,18752.00
2023-05-23T17:02:38.015Z,6916.00
2023-05-23T17:03:38.048Z,5848.00
2023-05-23T17:05:37.748Z,5844.00
2023-05-23T17:06:37.734Z,5388.00
2023-05-23T17:07:40.317Z,4416.00
2023-05-23T17:12:47.516Z,1556.00
2023-05-23T17:13:47.479Z,1600.00
2023-05-23T17:14:47.440Z,1708.00
2023-05-23T17:47:28.917Z,2852.00
2023-05-23T17:48:45.885Z,2788.00
2023-05-23T17:49:28.753Z,2740.00
2023-05-23T17:50:28.713Z,2688.00
2023-05-23T17:51:28.681Z,2644.00
2023-05-23T17:52:28.632Z,2600.00
2023-05-23T17:53:28.596Z,2564.00
2023-05-23T17:54:28.550Z,2520.00
2023-05-23T17:55:28.518Z,2456.00
2023-05-23T17:56:28.474Z,2416.00
2023-05-23T17:57:28.432Z,2360.00
2023-05-23T17:58:28.395Z,2312.00
2023-05-23T17:59:28.351Z,2260.00
2023-05-23T18:00:28.349Z,2224.00
2023-05-23T18:01:28.308Z,2180.00
2023-05-23T18:02:28.299Z,2144.00
2023-05-23T18:03:28.209Z,2100.00
2023-05-23T18:04:28.202Z,2060.00
2023-05-23T18:05:28.135Z,2020.00
2023-05-23T18:06:28.076Z,1976.00
2023-05-23T18:07:28.032Z,1928.00
2023-05-23T18:08:28.616Z,1884.00
2023-05-23T18:17:03.709Z,1536.00
2023-05-23T18:35:04.436Z,988.00
2023-05-23T18:36:04.368Z,956.00
2023-05-23T18:38:51.185Z,876.00
2023-05-23T18:39:51.088Z,844.00
2023-05-23T18:40:51.036Z,816.00
2023-05-23T18:41:50.992Z,792.00
2023-05-23T18:42:50.976Z,768.00
2023-05-23T18:43:50.911Z,740.00
2023-05-23T18:44:50.872Z,716.00
2023-05-23T18:45:50.823Z,688.00
2023-05-23T18:46:50.822Z,664.00
2023-05-23T18:47:50.778Z,636.00
2023-05-23T18:48:50.703Z,608.00
2023-05-23T18:49:50.663Z,584.00
2023-05-23T18:50:50.640Z,564.00
2023-05-23T18:51:50.573Z,540.00
2023-05-23T18:52:50.531Z,516.00
2023-05-23T18:53:50.516Z,496.00
2023-05-23T18:54:50.457Z,480.00
2023-05-23T18:55:50.410Z,456.00
2023-05-23T18:56:50.368Z,440.00
2023-05-23T18:57:50.324Z,416.00
2023-05-23T18:58:50.293Z,400.00
2023-05-23T18:59:50.238Z,380.00
2023-05-23T19:00:50.195Z,360.00
2023-05-23T19:01:50.221Z,344.00
2023-05-23T19:02:50.165Z,324.00
2023-05-23T19:03:50.271Z,308.00
2023-05-23T19:04:50.036Z,288.00
2023-05-23T19:05:50.004Z,272.00
2023-05-23T19:06:49.966Z,256.00
2023-05-23T19:07:49.903Z,240.00
2023-05-23T19:08:49.859Z,224.00
2023-05-23T19:09:49.828Z,208.00
2023-05-23T19:10:49.796Z,196.00
2023-05-23T19:11:49.746Z,184.00
